createdAt,value
2019-05-21T01:17:30.788Z,67.02
2019-05-21T01:21:38.932Z,67.05
2019-05-21T01:25:46.944Z,67.05
2019-05-21T01:29:56.805Z,68.82
2019-05-21T01:34:04.997Z,68.28
2019-05-21T01:38:12.838Z,66.85
2019-05-21T01:42:20.818Z,68.20
2019-05-21T01:46:28.804Z,68.55
2019-05-21T01:50:36.276Z,69.63
2019-05-21T01:54:43.894Z,70.34
2019-05-21T01:58:51.489Z,70.46
2019-05-21T02:02:59.671Z,70.13
2019-05-21T02:07:07.660Z,68.91
2019-05-21T02:11:15.155Z,68.73
2019-05-21T02:15:22.854Z,70.29
2019-05-21T02:19:30.856Z,70.99
2019-05-21T02:23:38.424Z,70.18
2019-05-21T02:27:46.493Z,69.46
2019-05-21T02:31:54.076Z,70.70
2019-05-21T02:36:01.966Z,71.10
2019-05-21T02:40:10.539Z,70.26
2019-05-21T02:44:18.072Z,69.74
2019-05-21T02:48:25.942Z,70.10
2019-05-21T02:52:34.144Z,71.07
2019-05-21T02:56:41.718Z,70.04
2019-05-21T03:01:18.306Z,69.64
2019-05-21T03:05:26.386Z,70.53
2019-05-21T03:09:34.080Z,69.56
2019-05-21T03:13:42.169Z,68.74
2019-05-21T03:17:49.979Z,68.85
2019-05-21T03:21:57.456Z,69.01
2019-05-21T03:26:05.540Z,69.64
2019-05-21T03:30:13.597Z,69.42
2019-05-21T03:34:21.770Z,68.80
2019-05-21T03:38:31.591Z,67.74
2019-05-21T03:42:39.288Z,68.03
2019-05-21T03:46:47.192Z,69.03
2019-05-21T03:50:55.286Z,69.42
2019-05-21T03:55:03.587Z,70.27
2019-05-21T03:59:11.581Z,69.55
2019-05-21T04:03:19.361Z,68.57
2019-05-21T04:07:27.481Z,67.82
2019-05-21T04:11:35.697Z,67.72
2019-05-21T04:15:59.985Z,67.21
2019-05-21T04:20:08.346Z,67.21
2019-05-21T04:24:16.335Z,67.15
2019-05-21T04:28:24.317Z,68.15
2019-05-21T04:32:32.308Z,67.83
2019-05-21T04:36:39.716Z,67.26
2019-05-21T04:40:47.665Z,65.37
2019-05-21T04:44:55.271Z,64.06
2019-05-21T04:49:02.874Z,63.82
2019-05-21T04:53:11.131Z,64.33
2019-05-21T04:57:19.098Z,64.97
2019-05-21T05:01:27.217Z,62.77
2019-05-21T05:05:35.118Z,62.70
2019-05-21T05:09:42.958Z,62.66
2019-05-21T05:13:51.399Z,62.63
2019-05-21T05:17:59.440Z,62.44
2019-05-21T05:22:06.938Z,61.20
2019-05-21T05:26:15.032Z,60.25
2019-05-21T05:30:23.212Z,58.83
2019-05-21T05:34:31.432Z,58.81
2019-05-21T05:38:40.105Z,58.05
2019-05-21T05:42:47.894Z,57.12
2019-05-21T05:46:55.901Z,56.06
2019-05-21T05:51:05.447Z,54.49
2019-05-21T05:55:13.468Z,54.36
2019-05-21T05:59:21.471Z,54.04
2019-05-21T06:03:30.820Z,53.83
2019-05-21T06:07:38.578Z,54.04
2019-05-21T06:11:46.569Z,52.42
2019-05-21T06:15:54.169Z,52.31
2019-05-21T06:20:02.040Z,50.82
2019-05-21T06:24:13.339Z,50.32
2019-05-21T06:28:20.300Z,48.00
2019-05-21T06:32:28.271Z,46.14
2019-05-21T06:36:35.844Z,47.42
2019-05-21T06:40:43.817Z,48.76
2019-05-21T06:44:51.889Z,47.54
2019-05-21T06:48:59.623Z,46.82
2019-05-21T06:53:07.744Z,45.76
2019-05-21T06:57:15.789Z,46.67
2019-05-21T07:01:28.925Z,45.51
2019-05-21T07:05:32.955Z,45.29
2019-05-21T07:15:10.820Z,42.87
2019-05-21T07:19:19.268Z,41.77
2019-05-21T07:23:27.732Z,41.58
2019-05-21T07:27:35.979Z,40.39
2019-05-21T07:31:44.754Z,39.75
2019-05-21T07:35:52.741Z,39.75
2019-05-21T07:40:01.260Z,39.17
2019-05-21T07:44:08.757Z,39.60
2019-05-21T07:48:17.222Z,38.18
2019-05-21T07:52:25.691Z,38.18
2019-05-21T07:56:33.149Z,37.24
2019-05-21T08:00:41.631Z,36.94
2019-05-21T08:04:49.455Z,36.82
2019-05-21T08:09:12.447Z,34.83
2019-05-21T08:13:07.282Z,34.78
2019-05-21T08:17:15.072Z,35.77
2019-05-21T08:21:23.947Z,35.61
2019-05-21T08:25:32.199Z,35.74
2019-05-21T08:29:39.917Z,34.49
2019-05-21T08:33:48.516Z,34.54
2019-05-21T08:37:56.322Z,34.65
2019-05-21T08:42:05.058Z,36.94
2019-05-21T08:46:13.781Z,35.67
2019-05-21T08:50:21.898Z,36.80
2019-05-21T08:54:50.070Z,36.37
2019-05-21T08:58:58.399Z,36.97
2019-05-21T09:03:06.202Z,36.90
2019-05-21T09:07:14.736Z,35.13
2019-05-21T09:11:23.480Z,35.15
2019-05-21T09:15:31.408Z,36.42
2019-05-21T09:19:41.245Z,35.23
2019-05-21T09:23:48.967Z,36.01
2019-05-21T09:27:56.957Z,36.44
2019-05-21T09:32:06.045Z,37.56
2019-05-21T09:36:14.022Z,39.07
2019-05-21T09:40:25.037Z,38.47
2019-05-21T09:44:33.849Z,38.03
2019-05-21T09:48:41.323Z,36.96
2019-05-21T09:52:50.074Z,36.19
2019-05-21T09:56:57.797Z,36.97
2019-05-21T10:01:23.367Z,37.67
2019-05-21T10:05:32.252Z,37.08
2019-05-21T10:09:39.961Z,36.47
2019-05-21T10:13:48.680Z,36.94
2019-05-21T10:17:57.382Z,37.32
2019-05-21T10:22:05.470Z,36.72
2019-05-21T10:26:13.860Z,36.49
2019-05-21T10:30:21.881Z,37.14
2019-05-21T10:34:29.791Z,36.02
2019-05-21T10:38:38.529Z,35.85
2019-05-21T10:42:46.317Z,37.54
2019-05-21T10:46:54.542Z,37.13
2019-05-21T10:51:03.468Z,36.71
2019-05-21T10:55:16.079Z,36.23
2019-05-21T10:59:25.656Z,36.06
2019-05-21T11:03:59.789Z,37.72
2019-05-21T11:08:25.415Z,37.63
2019-05-21T11:12:19.193Z,37.71
2019-05-21T11:16:27.117Z,37.07
2019-05-21T11:20:35.848Z,36.33
2019-05-21T11:24:44.473Z,37.25
2019-05-21T11:28:51.828Z,36.80
2019-05-21T11:33:00.283Z,38.04
2019-05-21T11:37:08.193Z,41.62
2019-05-21T11:41:15.887Z,42.90
2019-05-21T11:45:32.119Z,42.90
2019-05-21T11:49:33.875Z,46.28
2019-05-21T11:53:42.716Z,52.29
2019-05-21T11:57:51.327Z,52.29
2019-05-21T12:01:58.960Z,54.95
2019-05-21T12:06:07.684Z,56.17
2019-05-21T12:10:15.785Z,59.27
2019-05-21T12:14:24.422Z,58.50
2019-05-21T12:18:33.066Z,51.98
2019-05-21T12:22:40.866Z,48.91
2019-05-21T12:26:49.290Z,47.91
2019-05-21T12:30:57.013Z,48.30
2019-05-21T12:35:06.840Z,48.30
2019-05-21T12:39:15.098Z,47.69
2019-05-21T12:43:23.455Z,46.70
2019-05-21T12:47:32.026Z,45.06
2019-05-21T12:51:40.264Z,45.06
2019-05-21T12:55:49.184Z,46.91
2019-05-21T12:59:57.410Z,46.91
2019-05-21T13:04:05.836Z,47.80
2019-05-21T13:08:13.410Z,48.50
2019-05-21T13:12:21.676Z,49.42
2019-05-21T13:16:30.316Z,48.59
2019-05-21T13:20:37.874Z,48.38
2019-05-21T13:24:46.315Z,47.05
2019-05-21T13:28:54.396Z,47.47
2019-05-21T13:33:03.313Z,47.30
2019-05-21T13:37:11.228Z,47.30
2019-05-21T13:41:20.046Z,45.69
2019-05-21T13:45:28.102Z,46.63
2019-05-21T13:49:36.271Z,47.56
2019-05-21T13:53:44.925Z,47.56
2019-05-21T13:57:52.747Z,50.82
2019-05-21T14:02:01.475Z,57.06
2019-05-21T14:06:10.384Z,59.96
2019-05-21T14:10:21.305Z,62.22
2019-05-21T14:14:28.962Z,64.04
2019-05-21T14:18:36.652Z,63.09
2019-05-21T14:22:45.528Z,65.82
2019-05-21T14:26:53.230Z,67.77
2019-05-21T14:31:01.777Z,65.30
2019-05-21T14:35:11.421Z,60.84
2019-05-21T14:39:19.964Z,60.29
2019-05-21T14:43:28.785Z,57.40
2019-05-21T14:47:40.946Z,58.15
2019-05-21T14:51:47.640Z,56.26
2019-05-21T14:55:56.097Z,58.16
2019-05-21T15:00:07.535Z,57.92
2019-05-21T15:04:15.944Z,57.82
2019-05-21T15:08:25.052Z,57.59
2019-05-21T15:12:32.967Z,58.20
2019-05-21T15:16:41.720Z,58.12
2019-05-21T15:20:57.595Z,56.16
2019-05-21T15:25:06.287Z,56.66
2019-05-21T15:29:14.940Z,57.25
2019-05-21T15:33:29.401Z,57.88
2019-05-21T15:37:37.775Z,58.20
2019-05-21T15:41:45.986Z,56.89
2019-05-21T15:45:53.876Z,58.43
2019-05-21T15:50:02.310Z,53.97
2019-05-21T15:54:10.031Z,52.41
2019-05-21T15:58:19.273Z,51.31
2019-05-21T16:02:27.985Z,50.54
2019-05-21T16:06:35.677Z,49.46
2019-05-21T16:10:44.216Z,49.63
2019-05-21T16:14:52.957Z,49.65
2019-05-21T16:19:02.395Z,49.82
2019-05-21T16:23:11.145Z,50.84
2019-05-21T16:27:19.041Z,52.57
2019-05-21T16:31:27.680Z,53.49
2019-05-21T16:35:35.971Z,55.83
2019-05-21T16:39:44.575Z,57.83
2019-05-21T16:43:53.014Z,60.49
2019-05-21T16:48:01.432Z,62.47
2019-05-21T16:52:09.643Z,65.54
2019-05-21T16:56:18.042Z,74.18
2019-05-21T17:00:28.014Z,74.18
2019-05-21T17:04:36.727Z,76.16
2019-05-21T17:08:45.393Z,76.16
2019-05-21T17:12:53.199Z,73.69
2019-05-21T17:17:01.212Z,75.50
2019-05-21T17:21:09.090Z,78.61
2019-05-21T17:25:17.945Z,77.91
2019-05-21T17:29:25.994Z,77.16
2019-05-21T17:33:36.670Z,77.29
2019-05-21T17:37:44.799Z,77.90
2019-05-21T17:41:53.253Z,76.65
2019-05-21T17:46:00.695Z,77.02
2019-05-21T17:50:10.258Z,76.53
2019-05-21T17:54:17.762Z,77.72
2019-05-21T17:58:26.259Z,78.18
2019-05-21T18:02:35.021Z,78.10
2019-05-21T18:06:42.746Z,77.85
2019-05-21T18:10:51.031Z,77.73
2019-05-21T18:14:59.163Z,76.75
2019-05-21T18:19:08.583Z,76.03
2019-05-21T18:23:17.295Z,75.38
2019-05-21T18:27:26.196Z,74.70
2019-05-21T18:31:34.299Z,74.68
2019-05-21T18:35:45.359Z,76.43
2019-05-21T18:39:52.441Z,76.34
2019-05-21T18:44:00.541Z,73.81
2019-05-21T18:48:08.907Z,75.78
2019-05-21T18:52:16.492Z,77.56
2019-05-21T18:56:24.490Z,79.37
2019-05-21T19:00:32.202Z,77.84
2019-05-21T19:04:40.446Z,78.31
2019-05-21T19:08:48.438Z,79.30
2019-05-21T19:13:00.156Z,76.38
2019-05-21T19:17:07.072Z,75.71
2019-05-21T19:21:15.070Z,77.99
2019-05-21T19:25:24.185Z,77.18
2019-05-21T19:29:32.629Z,76.34
2019-05-21T19:33:40.222Z,79.65
2019-05-21T19:37:48.411Z,79.88
2019-05-21T19:41:56.722Z,78.45
2019-05-21T19:46:04.939Z,78.80
2019-05-21T19:50:15.253Z,79.60
2019-05-21T19:54:23.997Z,80.07
2019-05-21T19:58:31.588Z,79.46
2019-05-21T20:02:40.724Z,77.28
2019-05-21T20:06:48.830Z,78.01
2019-05-21T20:10:57.857Z,78.86
2019-05-21T20:15:06.989Z,79.15
2019-05-21T20:19:15.494Z,81.75
2019-05-21T20:23:24.829Z,78.64
2019-05-21T20:27:33.899Z,77.16
2019-05-21T20:31:41.682Z,78.95
2019-05-21T20:35:52.086Z,78.63
2019-05-21T20:39:59.856Z,77.85
2019-05-21T20:44:10.480Z,77.86
2019-05-21T20:48:19.383Z,78.54
2019-05-21T20:52:27.329Z,79.86
2019-05-21T20:56:35.500Z,79.87
2019-05-21T21:00:56.886Z,78.82
2019-05-21T21:05:06.550Z,77.92
2019-05-21T21:09:14.536Z,79.00
2019-05-21T21:13:22.421Z,78.42
2019-05-21T21:17:30.954Z,78.96
2019-05-21T21:21:40.048Z,80.03
2019-05-21T21:25:47.619Z,79.98
2019-05-21T21:29:55.960Z,80.14
2019-05-21T21:34:03.840Z,79.83
2019-05-21T21:38:16.389Z,80.04
2019-05-21T21:42:25.269Z,78.14
2019-05-21T21:46:33.143Z,77.20
2019-05-21T21:50:42.554Z,77.07
2019-05-21T21:54:51.525Z,77.74
2019-05-21T21:58:59.008Z,78.58
2019-05-21T22:03:10.943Z,79.59
2019-05-21T22:07:18.753Z,79.25
2019-05-21T22:11:30.009Z,79.93
2019-05-21T22:15:39.274Z,79.12
2019-05-21T22:19:47.437Z,77.59
2019-05-21T22:23:55.587Z,77.43
2019-05-21T22:28:04.314Z,79.10
2019-05-21T22:32:12.049Z,76.30
2019-05-21T22:36:20.797Z,76.74
2019-05-21T22:40:28.718Z,77.00
2019-05-21T22:44:37.720Z,77.78
2019-05-21T22:48:46.652Z,77.81
2019-05-21T22:52:54.228Z,79.19
2019-05-21T22:57:02.228Z,79.32
2019-05-21T23:01:11.942Z,78.92
2019-05-21T23:05:22.846Z,78.82
2019-05-21T23:09:29.322Z,78.81
2019-05-21T23:13:36.867Z,79.83
2019-05-21T23:17:45.072Z,77.81
2019-05-21T23:21:56.743Z,77.56
2019-05-21T23:26:05.214Z,78.08
2019-05-21T23:30:14.470Z,78.39
2019-05-21T23:34:23.013Z,78.16
2019-05-21T23:38:30.924Z,76.57
2019-05-21T23:42:39.440Z,77.20
2019-05-21T23:46:47.248Z,76.10
2019-05-21T23:50:55.410Z,76.21
2019-05-21T23:55:03.878Z,77.57
2019-05-21T23:59:12.097Z,77.56
